The Gut buster
Skip Navigation Links
Results
Leaderboard
MST Races
Race Stats
Smartphone Results
Race Website
31 December 2017
HyperLink
Click your name for detailed results
Page 1 of 7 (312 items)
[1]234567
Pos
Bib No
Fav
Share
Print
Name
Gun Time
Chip Time
Category
Cat Pos
Gender
Gen Pos
Club
Pace
1330Luc JOLLY1:02:56.91:02:56.3Under 401Male1READING AC 9.5 m/hr
2387Peter OSBORNE1:07:45.41:07:44.8Under 402Male2TRI2O 8.9 m/hr
381Colin SEYMOUR1:08:17.41:08:16.1Under 403Male3FETCH EVERYONE 8.8 m/hr
478Stephen RIDLEY1:08:43.91:08:43.0Under 404Male4READING ROADRUNNERS 8.7 m/hr
5344Jarrod KNIBBE1:09:49.11:09:47.3Under 405Male5ALWYN ALLSTARS 8.6 m/hr
6404Will RAWLING1:10:46.01:10:45.340-491Male6SHAEF SHIFTERS 8.5 m/hr
754Ed JONES1:10:55.71:10:55.040-492Male7READING JOGGERS 8.5 m/hr
8441Mark STILEMAN 1:11:42.11:11:41.050-591Male8ROMSEY ROAD RUNNERS 8.4 m/hr
9247Patrick CONNORS1:12:05.91:12:00.5Under 406Male9ITCHEN SPITFIRES RC 8.3 m/hr
10279Peter FLEWITT 1:12:36.21:12:30.240-493Male10EALING SOUTHALL AND MIDDLESEX AC 8.3 m/hr
11415John ROBERTSON1:13:38.31:13:32.2Under 407Male11  8.1 m/hr
1264Andy MORGAN1:13:52.11:13:48.240-494Male12READING ROADRUNNERS 8.1 m/hr
1337Tim GILES1:13:54.91:13:53.8Under 408Male13  8.1 m/hr
14359Royston MADDAMS1:13:56.01:13:54.8Under 409Male14BELGRAVE 8.1 m/hr
15332Dave JONES1:14:10.11:14:07.6Under 4010Male15BRAMLEY TRAIL RUNNERS 8.1 m/hr
16291Andy GODWIN1:14:26.41:14:25.4Under 4011Male16WHITE HORSE HARRIERS 8.1 m/hr
17374Stephen MOTT1:14:59.31:14:56.340-495Male17SANDHURST JOGGERS 8.0 m/hr
18208Owen BARDER1:15:16.71:15:12.450-592Male18SERPENTINE RUNNING CLUB 8.0 m/hr
19420Ben ROLLINGS1:15:21.01:15:19.1Under 4012Male19READING AC 8.0 m/hr
2088Wayne THURSTING1:15:26.31:15:23.140-496Male203CTRI 8.0 m/hr
21292Mark GORST1:15:45.51:15:43.240-497Male21  7.9 m/hr
2292Tony WALKER1:15:55.71:15:51.440-498Male22READING ROADRUNNERS 7.9 m/hr
23230Sir James BRYCE1:16:03.81:15:50.440-499Male23  7.9 m/hr
2425Mark DAVIDSON1:16:12.81:16:06.940-4910Male24  7.9 m/hr
2538Ellie GOSLING1:16:17.51:16:14.9Under 401Female1BRACKNELL FOREST RUNNERS 7.9 m/hr
26383Ben NUTLEY1:16:40.71:16:38.4Under 4013Male25  7.8 m/hr
27245Richard COATES1:16:45.01:16:41.140-4911Male26TRI2O 7.8 m/hr
28241Harriet CHETTLEBURGH1:16:47.91:16:44.540-491Female2TRI2O 7.8 m/hr
29296Jon GUBB1:17:47.91:17:44.240-4912Male27TRI2O 7.7 m/hr
3066Nick ONSLOW1:17:51.21:17:41.640-4913Male28BRAMLEY TRAIL RUNNERS 7.7 m/hr
3158Paul MCENTEGART1:17:56.31:17:52.840-4914Male29  7.7 m/hr
3287Gareth SYLVESTER-BRADLEY1:18:29.01:18:27.040-4915Male30TRI2O 7.6 m/hr
33345Jorren KNIBBE1:18:54.81:18:46.9Under 4014Male31ALWYN ALLSTARS 7.6 m/hr
3497Lee WEBB1:19:14.61:19:11.540-4916Male32BRAMLEY TRAIL RUNNERS 7.6 m/hr
35389Christopher PALMER1:19:17.71:19:08.4Under 4015Male33  7.6 m/hr
3672Paul PERRATT1:19:27.91:19:12.940-4917Male34  7.6 m/hr
37304Daniel HARE1:20:02.21:19:47.140-4918Male35  7.5 m/hr
38357Paul MACKENZIE1:20:30.71:20:16.240-4919Male36FINCH COASTERS 7.5 m/hr
39397Matthew PILLINGER1:20:37.61:20:30.8Under 4016Male37OS RUNNERS 7.4 m/hr
40334David JONES1:20:38.41:20:29.2Under 4017Male38  7.4 m/hr
41405Nigel RAYMENT1:21:10.81:21:06.140-4920Male39  7.4 m/hr
42282Andrew FROST1:21:27.31:20:27.1Under 4018Male40  7.4 m/hr
4379Simon ROURKE1:21:44.61:21:39.540-4921Male41  7.3 m/hr
44274David FERGUSON1:21:45.21:21:34.8Under 4019Male42READING ROADRUNNERS 7.3 m/hr
4557Anthony LONG1:21:58.31:21:42.840-4922Male43READING ROADRUNNERS 7.3 m/hr
46313Jon HEANEY1:22:02.51:21:55.1Under 4020Male44  7.3 m/hr
47226Matt BRICKNELL1:22:07.61:22:04.040-4923Male45  7.3 m/hr
4821Richard CRAMPTON1:22:08.31:22:03.740-4924Male46TRI2O 7.3 m/hr
49260Jane DAVIES1:22:18.31:22:07.650-591Female3READING AC 7.3 m/hr
50605Pete JENKINS1:22:30.51:22:07.8Under 4021Male47TADLEY RUNNERS 7.3 m/hr
Page 1 of 7 (312 items)
[1]234567
fb